Latest Weather Observations for Port Fairy

IDV60801

Issued at 10:02 am EST Wednesday 29 June 2016 (issued every 30 minutes, with the page automatically refreshed every 10 minutes)

About weather observations | Map of weather stations | Latest weather observations for VIC | Other Formats
Station Details ID: 090175 Name: PORT FAIRY AWS Lat: -38.39 Lon: 142.23 Height: 10.0 m
Data from the previous 72 hours. | See also: Recent months at Port Fairy
Date/Time
EST
Temp
°C
App
Temp
°C
Dew
Point
°C
Rel
Hum
%
Delta-T
°C
Wind Press
QNH
hPa
Press
MSL
hPa
Rain since
9am
mm
Dir  Spd
km/h
Gust
km/h
Spd
kts
Gust
kts
29/10:00am 10.6 7.3 8.2 85 1.2 N 15 19 8 10 1024.3 1024.3 0.0
29/09:30am 9.6 6.3 7.9 89 0.8 N 15 20 8 11 1024.2 1024.2 0.0
29/09:00am 8.5 5.2 7.9 96 0.3 N 15 19 8 10 1024.4 1024.4 0.0
29/08:30am 7.7 4.7 7.6 99 0.0 N 13 19 7 10 1024.4 1024.4 0.0
29/08:00am 7.5 4.4 7.4 99 0.0 N 13 19 7 10 1024.3 1024.3 0.0
29/07:30am 7.9 5.3 7.8 99 0.0 N 11 17 6 9 1024.3 1024.3 0.0
29/07:00am 8.3 5.8 8.2 99 0.0 N 11 17 6 9 1024.2 1024.2 0.0
29/06:30am 8.7 5.9 8.6 99 0.0 N 13 19 7 10 1024.1 1024.1 0.0
29/06:00am 9.5 6.9 9.4 99 0.0 N 13 20 7 11 1024.1 1024.1 0.0
29/05:30am 9.9 7.8 9.9 100 0.0 NNW 11 17 6 9 1023.8 1023.8 0.0
29/05:00am 10.4 8.1 10.4 100 0.0 NNW 13 20 7 11 1023.7 1023.7 0.0
29/04:30am 10.4 7.3 10.4 100 0.0 NNW 17 28 9 15 1023.6 1023.6 0.0
29/04:00am 10.4 8.1 10.4 100 0.0 NNW 13 17 7 9 1023.9 1023.9 0.0
29/03:30am 10.8 8.2 10.8 100 0.0 NNW 15 22 8 12 1024.1 1024.1 0.0
29/03:00am 10.8 8.2 10.8 100 0.0 NNW 15 24 8 13 1023.9 1023.9 0.0
29/02:30am 11.1 8.2 10.9 99 0.1 NNW 17 24 9 13 1023.8 1023.8 0.0
29/02:00am 11.0 8.4 10.8 99 0.1 NNW 15 22 8 12 1023.9 1023.9 0.0
29/01:30am 11.1 8.2 10.9 99 0.1 N 17 24 9 13 1023.8 1023.8 0.0
29/01:00am 11.2 8.7 11.0 99 0.1 N 15 24 8 13 1023.9 1023.9 0.0
29/12:30am 11.2 9.4 11.0 99 0.1 NNW 11 19 6 10 1024.2 1024.2 0.0
29/12:00am 11.4 9.3 11.2 99 0.1 N 13 20 7 11 1024.2 1024.2 0.0
 
Date/Time
EST
Temp
°C
App
Temp
°C
Dew
Point
°C
Rel
Hum
%
Delta-T
°C
Wind Press
QNH
hPa
Press
MSL
hPa
Rain since
9am
mm
Dir  Spd
km/h
Gust
km/h
Spd
kts
Gust
kts
28/11:30pm 11.4 9.3 11.2 99 0.1 N 13 20 7 11 1024.2 1024.2 0.0
28/11:00pm 11.4 9.4 11.4 100 0.0 NNW 13 20 7 11 1024.3 1024.3 0.0
28/10:30pm 11.5 9.9 11.5 100 0.0 NNW 11 17 6 9 1024.5 1024.5 0.0
28/10:00pm 11.4 10.1 11.4 100 0.0 NNW 9 15 5 8 1024.6 1024.6 0.0
28/09:30pm 11.3 10.4 11.3 100 0.0 NNW 7 13 4 7 1024.7 1024.7 0.0
28/09:00pm 11.2 9.1 11.0 99 0.1 NNW 13 20 7 11 1024.5 1024.5 0.0
28/08:30pm 11.9 9.6 11.7 99 0.1 NNW 15 24 8 13 1024.4 1024.4 0.0
28/08:00pm 12.1 9.7 11.5 96 0.3 NNW 15 24 8 13 1024.1 1024.1 0.0
28/07:30pm 11.5 9.7 10.9 96 0.3 NNW 11 17 6 9 1023.8 1023.8 0.0
28/07:00pm 11.8 9.6 10.9 94 0.5 NNW 13 19 7 10 1023.7 1023.7 0.0
28/06:30pm 12.5 10.9 11.4 93 0.6 NNW 11 20 6 11 1023.5 1023.5 0.0
28/06:00pm 12.4 10.3 11.1 92 0.7 NW 13 20 7 11 1023.2 1023.2 0.0
28/05:30pm 12.5 10.8 11.1 91 0.7 NNW 11 19 6 10 1022.9 1022.9 0.0
28/05:00pm 13.7 11.6 11.2 85 1.3 NW 13 20 7 11 1022.6 1022.6 0.0
28/04:30pm 14.1 12.7 12.1 88 1.1 NW 11 20 6 11 1022.5 1022.5 0.0
28/04:00pm 14.4 13.0 12.3 87 1.1 NNW 11 20 6 11 1022.2 1022.2 0.0
28/03:30pm 15.0 13.2 12.1 83 1.6 NNW 13 20 7 11 1022.2 1022.2 0.0
28/03:00pm 15.1 13.4 12.4 84 1.5 NW 13 22 7 12 1022.1 1022.1 0.0
28/02:30pm 14.5 12.3 12.0 85 1.4 NW 15 24 8 13 1022.2 1022.2 0.0
28/02:00pm 14.8 12.2 11.9 83 1.6 NW 17 28 9 15 1022.2 1022.2 0.0
28/01:30pm 15.8 12.9 12.2 79 2.0 NNW 19 32 10 17 1022.3 1022.3 0.0
28/01:00pm 15.2 12.2 12.7 85 1.4 NW 20 32 11 17 1022.4 1022.4 0.0
28/12:30pm 15.4 13.0 12.5 83 1.6 NNW 17 30 9 16 1022.4 1022.4 0.0
28/12:00pm 14.8 12.4 12.5 86 1.3 NW 17 28 9 15 1022.8 1022.8 0.0
28/11:30am 13.5 10.9 12.1 91 0.8 NNW 17 28 9 15 1023.0 1023.0 0.0
28/11:00am 13.2 10.5 11.8 91 0.7 NW 17 30 9 16 1023.0 1023.0 0.0
28/10:30am 12.4 9.4 11.8 96 0.3 NNW 19 30 10 16 1022.8 1022.8 0.0
28/10:00am 11.0 8.5 11.0 100 0.0 NNW 15 26 8 14 1022.7 1022.7 0.0
28/09:30am 10.6 7.6 10.6 100 0.0 NNW 17 26 9 14 1022.5 1022.5 0.0
28/09:00am 9.9 6.7 9.9 100 0.0 NNW 17 28 9 15 1022.2 1022.2 0.0
28/08:30am 9.1 5.7 9.1 100 0.0 NNW 17 24 9 13 1021.7 1021.7 0.0
28/08:00am 8.6 5.1 8.6 100 0.0 NNW 17 24 9 13 1021.3 1021.3 0.0
28/07:30am 8.6 5.1 8.6 100 0.0 NNW 17 26 9 14 1021.2 1021.2 0.0
28/07:00am 8.6 4.7 8.6 100 0.0 NNW 19 28 10 15 1020.8 1020.8 0.0
28/06:30am 8.4 4.8 8.4 100 0.0 NNW 17 30 9 16 1020.5 1020.5 0.0
28/06:00am 8.2 4.6 8.2 100 0.0 NNW 17 26 9 14 1020.1 1020.1 0.0
28/05:30am 8.1 4.4 8.0 99 0.0 NNW 17 24 9 13 1020.0 1020.0 0.0
28/05:00am 8.3 4.7 8.2 99 0.0 NNW 17 24 9 13 1019.9 1019.9 0.0
28/04:30am 8.5 4.5 8.4 99 0.0 NNW 19 28 10 15 1019.8 1019.8 0.0
28/04:00am 8.4 4.8 8.3 99 0.0 NNW 17 24 9 13 1019.9 1019.9 0.0
28/03:30am 8.9 5.4 8.8 99 0.0 NNW 17 24 9 13 1020.0 1020.0 0.0
28/03:00am 8.8 5.2 8.5 98 0.1 NNW 17 24 9 13 1020.1 1020.1 0.0
28/02:30am 8.9 5.0 8.5 97 0.2 NNW 19 28 10 15 1020.0 1020.0 0.0
28/02:00am 8.9 5.0 8.5 97 0.2 NNW 19 30 10 16 1019.7 1019.7 0.0
28/01:30am 8.4 4.3 8.0 97 0.2 NNW 19 26 10 14 1019.8 1019.8 0.0
28/01:00am 8.7 5.1 8.4 98 0.1 NNW 17 28 9 15 1019.8 1019.8 0.0
28/12:30am 7.8 4.8 7.7 99 0.0 NNW 13 19 7 10 1019.9 1019.9 0.0
28/12:00am 7.9 4.9 7.6 98 0.1 NNW 13 19 7 10 1020.0 1020.0 0.0
 
Date/Time
EST
Temp
°C
App
Temp
°C
Dew
Point
°C
Rel
Hum
%
Delta-T
°C
Wind Press
QNH
hPa
Press
MSL
hPa
Rain since
9am
mm
Dir  Spd
km/h
Gust
km/h
Spd
kts
Gust
kts
27/11:30pm 8.4 5.1 8.1 98 0.1 NNW 15 22 8 12 1019.9 1019.9 0.0
27/11:00pm 8.3 5.0 8.2 99 0.0 NNW 15 20 8 11 1019.9 1019.9 0.0
27/10:30pm 8.4 5.5 8.1 98 0.1 NNW 13 20 7 11 1019.9 1019.9 0.0
27/10:00pm 8.5 5.7 8.4 99 0.0 NNW 13 20 7 11 1019.7 1019.7 0.0
27/09:30pm 8.2 5.7 8.1 99 0.0 NNW 11 17 6 9 1019.7 1019.7 0.0
27/09:00pm 7.9 5.3 7.8 99 0.0 NNW 11 19 6 10 1019.6 1019.6 0.0
27/08:30pm 8.2 5.2 7.8 97 0.2 NNW 13 20 7 11 1019.5 1019.5 0.0
27/08:00pm 8.3 5.6 7.5 95 0.4 NNW 11 17 6 9 1019.5 1019.5 0.0
27/07:30pm 8.6 6.0 7.7 94 0.4 NNW 11 17 6 9 1019.1 1019.1 0.0
27/07:00pm 9.1 7.0 8.2 94 0.4 NNW 9 13 5 7 1019.0 1019.0 0.0
27/06:30pm 9.3 6.8 8.2 93 0.5 NW 11 15 6 8 1018.7 1018.7 0.0
27/06:00pm 9.7 7.9 8.1 90 0.8 NW 7 13 4 7 1018.4 1018.4 0.0
27/05:30pm 10.6 8.1 8.4 86 1.1 NW 11 17 6 9 1018.1 1018.1 0.0
27/05:00pm 11.3 9.2 8.2 81 1.5 NNW 9 15 5 8 1017.9 1017.9 0.0
27/04:30pm 12.3 10.7 8.8 79 1.7 NW 7 11 4 6 1017.7 1017.7 0.0
27/04:00pm 12.9 10.8 8.4 74 2.2 WNW 9 17 5 9 1017.7 1017.7 0.0
27/03:30pm 13.1 10.9 8.0 71 2.5 NW 9 17 5 9 1017.5 1017.5 0.0
27/03:00pm 13.6 10.3 8.2 70 2.7 WNW 15 24 8 13 1017.3 1017.3 0.0
27/02:30pm 13.7 9.9 7.5 66 3.0 WNW 17 26 9 14 1017.1 1017.1 0.0
27/02:00pm 13.9 10.6 7.9 67 3.0 WNW 15 24 8 13 1017.1 1017.1 0.0
27/01:30pm 13.2 9.2 8.1 71 2.5 WNW 19 28 10 15 1017.2 1017.2 0.0
27/01:00pm 13.6 10.2 7.8 68 2.9 WNW 15 22 8 12 1017.3 1017.3 0.0
27/12:30pm 13.2 10.3 8.3 72 2.4 NW 13 22 7 12 1017.4 1017.4 0.0
27/12:00pm 12.6 9.8 8.5 76 2.0 NW 13 20 7 11 1017.7 1017.7 0.0
27/11:30am 12.5 10.4 9.9 84 1.3 NW 11 19 6 10 1017.8 1017.8 0.0
27/11:00am 11.6 9.6 10.2 91 0.7 NW 11 19 6 10 1017.7 1017.7 0.0
27/10:30am 10.2 8.2 10.1 99 0.1 NNW 11 19 6 10 1017.7 1017.7 0.0
27/10:00am 9.0 6.7 9.0 100 0.0 NW 11 19 6 10 1017.4 1017.4 0.0
27/09:30am 8.6 6.2 8.6 100 0.0 NNW 11 17 6 9 1017.2 1017.2 0.0
27/09:00am 8.1 5.6 8.1 100 0.0 NW 11 19 6 10 1017.0 1017.0 0.2
27/08:30am 7.5 4.5 7.5 100 0.0 NW 13 20 7 11 1016.6 1016.6 0.2
27/08:00am 6.9 3.7 6.9 100 0.0 NW 13 19 7 10 1016.3 1016.3 0.2
27/07:30am 7.1 4.0 7.1 100 0.0 NW 13 20 7 11 1016.2 1016.2 0.2
27/07:00am 7.3 4.2 7.3 100 0.0 NNW 13 17 7 9 1015.8 1015.8 0.2
27/06:30am 7.4 4.3 7.4 100 0.0 NNW 13 19 7 10 1015.4 1015.4 0.2
27/06:00am 7.4 3.9 7.4 100 0.0 NNW 15 20 8 11 1015.2 1015.2 0.2
27/05:30am 7.4 4.7 7.3 99 0.0 NW 11 17 6 9 1015.0 1015.0 0.2
27/05:00am 7.2 3.7 7.1 99 0.0 NNW 15 20 8 11 1014.6 1014.6 0.0
27/04:30am 7.2 4.1 7.1 99 0.0 NNW 13 20 7 11 1014.5 1014.5 0.0
27/04:00am 7.4 3.9 7.1 98 0.1 NNW 15 24 8 13 1014.5 1014.5 0.0
27/03:30am 7.8 3.7 6.3 90 0.7 NNW 17 26 9 14 1014.5 1014.5 0.0
27/03:00am 8.2 3.6 5.5 83 1.2 NNW 19 28 10 15 1014.3 1014.3 0.0
27/02:30am 8.2 3.6 5.7 84 1.1 NNW 19 26 10 14 1014.2 1014.2 0.0
27/02:00am 8.1 3.5 5.7 85 1.1 NNW 19 30 10 16 1014.0 1014.0 0.0
27/01:30am 8.1 3.5 5.7 85 1.1 NNW 19 32 10 17 1014.2 1014.2 0.0
27/01:00am 8.4 4.2 5.9 84 1.1 NNW 17 24 9 13 1014.4 1014.4 0.0
27/12:30am 8.4 4.2 5.5 82 1.3 NNW 17 28 9 15 1014.5 1014.5 0.0
27/12:00am 8.3 4.0 5.4 82 1.3 NNW 17 26 9 14 1014.5 1014.5 0.0
 
Date/Time
EST
Temp
°C
App
Temp
°C
Dew
Point
°C
Rel
Hum
%
Delta-T
°C
Wind Press
QNH
hPa
Press
MSL
hPa
Rain since
9am
mm
Dir  Spd
km/h
Gust
km/h
Spd
kts
Gust
kts
26/11:30pm 8.5 4.6 5.4 81 1.4 NNW 15 28 8 15 1014.4 1014.4 0.0
26/11:00pm 8.6 4.7 5.5 81 1.4 NNW 15 22 8 12 1014.4 1014.4 0.0
26/10:30pm 8.6 4.7 5.5 81 1.4 NNW 15 24 8 13 1014.4 1014.4 0.0
26/10:00pm 8.7 5.2 5.4 80 1.5 NNW 13 24 7 13 1014.5 1014.5 0.0
26/09:30pm 8.9 4.7 5.6 80 1.5 NNW 17 30 9 16 1014.5 1014.5 0.0
26/09:00pm 8.8 5.4 5.7 81 1.4 NNW 13 22 7 12 1014.5 1014.5 0.0
26/08:30pm 8.4 5.0 5.7 83 1.2 NNW 13 19 7 10 1014.7 1014.7 0.0
26/08:00pm 8.5 4.6 5.4 81 1.4 N 15 24 8 13 1014.7 1014.7 0.0
26/07:30pm 8.4 4.5 5.3 81 1.4 N 15 20 8 11 1014.7 1014.7 0.0
26/07:00pm 8.4 4.5 5.3 81 1.4 N 15 20 8 11 1014.8 1014.8 0.0
26/06:30pm 8.8 5.3 5.4 79 1.5 N 13 19 7 10 1014.8 1014.8 0.0
26/06:00pm 8.7 5.5 5.1 78 1.6 NNW 11 15 6 8 1014.8 1014.8 0.0
26/05:30pm 8.9 5.3 4.9 76 1.8 NNW 13 20 7 11 1014.7 1014.7 0.0
26/05:00pm 9.4 5.8 5.0 74 2.0 NNW 13 20 7 11 1014.5 1014.5 0.0
26/04:30pm 10.3 6.3 4.9 69 2.4 NNW 15 24 8 13 1014.3 1014.3 0.0
26/04:00pm 11.4 7.1 5.1 65 2.9 NNW 17 28 9 15 1014.1 1014.1 0.0
26/03:30pm 11.9 7.2 5.1 63 3.1 NNW 19 32 10 17 1014.2 1014.2 0.0
26/03:00pm 12.3 7.5 5.5 63 3.2 NNW 20 39 11 21 1014.3 1014.3 0.0
26/02:30pm 12.4 6.7 5.1 61 3.4 NNW 24 35 13 19 1014.6 1014.6 0.0
26/02:00pm 12.8 7.6 5.7 62 3.3 NNW 22 39 12 21 1014.9 1014.9 0.0
26/01:30pm 12.6 7.1 5.8 63 3.2 NNW 24 39 13 21 1015.1 1015.1 0.0
26/01:00pm 11.8 5.8 5.2 64 3.0 NNW 26 41 14 22 1015.5 1015.5 0.0
26/12:30pm 12.1 7.4 5.3 63 3.1 NNW 19 33 10 18 1015.9 1015.9 0.0
26/12:00pm 11.9 7.7 5.5 65 3.0 NNW 17 28 9 15 1016.2 1016.2 0.0
26/11:30am 11.1 6.7 5.0 66 2.8 NNW 17 30 9 16 1016.7 1016.7 0.0
26/11:00am 10.6 6.0 5.4 70 2.4 NNW 19 26 10 14 1017.1 1017.1 0.0
26/10:30am 9.6 5.7 5.4 75 1.9 N 15 22 8 12 1017.4 1017.4 0.0

Other Formats:

Comma delimited format used in spreadsheet applications
http://www.bom.gov.au/fwo/IDV60801/IDV60801.94830.axf

JavaScript Object Notation format (JSON) in row-major order
http://www.bom.gov.au/fwo/IDV60801/IDV60801.94830.json